Avant, Oklahoma
Current Conditions -  °F | °C
As of 1:53 AM on Friday 19 Dec 2014 (Local Time) from KBVO Reporting Station
Overcast Overcast  
Wind Chill: 31°   Ceiling: 1300
Heat Index: 35°   Visibility: 10mi
Dew Point: 32°   Wind: 5mph
Humidity: 89%   Direction: 360°N
Pressure: 30.25"   Gusts: NA
Location:  36.49°N, 96.06°W
Report Text: KBVO 190753Z AUTO 36004KT 10SM OVC013 02/00 A3025 RMK AO2 SLP245 T00170000
Loading
Personal Weather Stations






























Interactive Weather Map New forecast layout! Learn more

10-Day Weather Forecast

Advertisements
Track Severe Weather on mobile